Indianapolis, Indiana
Traffic Map
Current Weather Conditions
Indianapolis, Indiana
Broken Clouds
Broken Clouds
46°
Feels Like: 46°
Wind Chill: 46° Ceiling: 9000
Heat Index: 46° Visibility: 8mi
Dew Point: 42° Wind: 0mph
Humidity: 86% Direction: ° ()
Pressure: 30.11in Gusts: 0mph
Raw Report DataKIND 241254Z 00000KT 8SM BKN090 BKN110 08/06 A3011 RMK AO2 SLP198 T00780056
Traffic Incident Summary
Active as of:
Severity:
Category:
InformationThere was an issue retrieving the traffic information for this location. Please try a different location or try again shortly.
Advertisements
Track Severe Weather on mobile